UAL1010 KDEN-KEWR
Flight info
| Callsign | UAL1010 |
|---|---|
| Flight time | N/A |
| Altitude | 33000 |
| Route | EEONS8 WYNDM OVR DSM EVOTE NELLS KEEHO J584 SLT FQM3 |
| Aircraft | A321/M-SDE3FGHIRWY/LB1 |
Departure
| Time | 2026-05-03 23:41 |
|---|---|
| Airport | Denver International Airport (KDEN) |
Arrival
| Time | N/A |
|---|---|
| Airport | Newark Liberty International Airport (KEWR) |
| Time | Latitude | Longitude | Altitude | Speed | Heading |
|---|---|---|---|---|---|
| 2026-05-03 23:25 | 39.85801 | -104.66911 | 5366 ft | 0 kts | 0° |
| 2026-05-03 23:31 | 39.85789 | -104.66911 | 5366 ft | 4 kts | 360° |
| 2026-05-03 23:31 | 39.85762 | -104.66911 | 5362 ft | 4 kts | 360° |
| 2026-05-03 23:31 | 39.85735 | -104.66911 | 5365 ft | 4 kts | 0° |
| 2026-05-03 23:31 | 39.85709 | -104.66911 | 5364 ft | 2 kts | 1° |
| 2026-05-03 23:32 | 39.85708 | -104.66911 | 5366 ft | 0 kts | 1° |
| 2026-05-03 23:34 | 39.85715 | -104.66922 | 5366 ft | 4 kts | 314° |
| 2026-05-03 23:34 | 39.85726 | -104.66954 | 5363 ft | 4 kts | 286° |
| 2026-05-03 23:35 | 39.85729 | -104.66999 | 5366 ft | 7 kts | 267° |
| 2026-05-03 23:35 | 39.85698 | -104.67072 | 5364 ft | 12 kts | 228° |
| 2026-05-03 23:35 | 39.85641 | -104.67153 | 5364 ft | 13 kts | 227° |
| 2026-05-03 23:35 | 39.85594 | -104.67252 | 5366 ft | 15 kts | 257° |
| 2026-05-03 23:36 | 39.85594 | -104.67411 | 5366 ft | 18 kts | 271° |
| 2026-05-03 23:36 | 39.85594 | -104.67573 | 5366 ft | 18 kts | 270° |
| 2026-05-03 23:36 | 39.85594 | -104.67733 | 5366 ft | 18 kts | 270° |
| 2026-05-03 23:36 | 39.85595 | -104.67894 | 5366 ft | 18 kts | 270° |
| 2026-05-03 23:37 | 39.85597 | -104.68056 | 5366 ft | 18 kts | 270° |
| 2026-05-03 23:37 | 39.85598 | -104.68218 | 5366 ft | 18 kts | 271° |
| 2026-05-03 23:37 | 39.85599 | -104.68389 | 5363 ft | 19 kts | 270° |
| 2026-05-03 23:37 | 39.85551 | -104.68513 | 5363 ft | 6 kts | 229° |
| 2026-05-03 23:38 | 39.85567 | -104.68525 | 5366 ft | 6 kts | 359° |
| 2026-05-03 23:38 | 39.85659 | -104.68515 | 5363 ft | 18 kts | 2° |
| 2026-05-03 23:38 | 39.85818 | -104.68511 | 5363 ft | 26 kts | 359° |
| 2026-05-03 23:38 | 39.86002 | -104.68509 | 5365 ft | 28 kts | 1° |
| 2026-05-03 23:39 | 39.86205 | -104.68506 | 5364 ft | 29 kts | 0° |
| 2026-05-03 23:39 | 39.86392 | -104.68505 | 5366 ft | 21 kts | 0° |
| 2026-05-03 23:39 | 39.86425 | -104.68552 | 5365 ft | 10 kts | 278° |
| 2026-05-03 23:39 | 39.86435 | -104.68679 | 5369 ft | 12 kts | 299° |
| 2026-05-03 23:40 | 39.86498 | -104.68715 | 5366 ft | 10 kts | 349° |
| 2026-05-03 23:40 | 39.86572 | -104.68715 | 5367 ft | 15 kts | 0° |
| 2026-05-03 23:40 | 39.86853 | -104.68714 | 5365 ft | 65 kts | 360° |
| 2026-05-03 23:40 | 39.87450 | -104.68709 | 5364 ft | 105 kts | 0° |
| 2026-05-03 23:41 | 39.88293 | -104.68699 | 5366 ft | 136 kts | 1° |
| 2026-05-03 23:41 | 39.89344 | -104.68696 | 5373 ft | 166 kts | 354° |
| 2026-05-03 23:41 | 39.90528 | -104.68674 | 5769 ft | 171 kts | 0° |
| 2026-05-03 23:41 | 39.91716 | -104.68590 | 6472 ft | 172 kts | 6° |
| 2026-05-03 23:42 | 39.92775 | -104.67863 | 6971 ft | 186 kts | 51° |
| 2026-05-03 23:42 | 39.93337 | -104.66236 | 7204 ft | 216 kts | 66° |
| 2026-05-03 23:42 | 39.93925 | -104.64245 | 7096 ft | 252 kts | 65° |
| 2026-05-03 23:42 | 39.94623 | -104.61995 | 7025 ft | 282 kts | 68° |
| 2026-05-03 23:43 | 39.94939 | -104.60229 | 7007 ft | 293 kts | 85° |
| 2026-05-03 23:43 | 39.94987 | -104.57548 | 6991 ft | 298 kts | 87° |